sensor_id;sensor_type;location;lat;lon;timestamp;P1;durP1;ratioP1;P2;durP2;ratioP2
68938;SDS011;59064;45.294;11.816;2022-12-11T00:01:57;28.10;;;16.80;;
68938;SDS011;59064;45.294;11.816;2022-12-11T00:04:23;25.90;;;16.80;;
68938;SDS011;59064;45.294;11.816;2022-12-11T00:06:48;29.30;;;18.10;;
68938;SDS011;59064;45.294;11.816;2022-12-11T00:09:16;28.10;;;15.80;;
68938;SDS011;59064;45.294;11.816;2022-12-11T00:11:42;23.90;;;13.90;;
68938;SDS011;59064;45.294;11.816;2022-12-11T00:14:08;26.40;;;15.10;;
68938;SDS011;59064;45.294;11.816;2022-12-11T00:16:33;23.40;;;11.90;;
68938;SDS011;59064;45.294;11.816;2022-12-11T00:18:59;28.70;;;16.50;;
68938;SDS011;59064;45.294;11.816;2022-12-11T00:21:24;30.00;;;17.50;;
68938;SDS011;59064;45.294;11.816;2022-12-11T00:23:51;30.60;;;17.20;;
68938;SDS011;59064;45.294;11.816;2022-12-11T00:26:17;36.60;;;20.90;;
68938;SDS011;59064;45.294;11.816;2022-12-11T00:28:43;29.30;;;17.20;;
68938;SDS011;59064;45.294;11.816;2022-12-11T00:31:14;29.00;;;17.40;;
68938;SDS011;59064;45.294;11.816;2022-12-11T00:33:42;34.20;;;18.00;;
68938;SDS011;59064;45.294;11.816;2022-12-11T00:36:15;32.80;;;18.40;;
68938;SDS011;59064;45.294;11.816;2022-12-11T00:38:43;28.40;;;15.90;;
68938;SDS011;59064;45.294;11.816;2022-12-11T00:41:09;29.20;;;15.80;;
68938;SDS011;59064;45.294;11.816;2022-12-11T00:43:36;27.50;;;16.00;;
68938;SDS011;59064;45.294;11.816;2022-12-11T00:46:02;29.80;;;15.20;;
68938;SDS011;59064;45.294;11.816;2022-12-11T00:48:27;29.10;;;15.80;;
68938;SDS011;59064;45.294;11.816;2022-12-11T00:50:53;22.90;;;12.80;;
68938;SDS011;59064;45.294;11.816;2022-12-11T00:53:19;22.60;;;12.70;;
68938;SDS011;59064;45.294;11.816;2022-12-11T00:55:44;25.10;;;13.80;;
68938;SDS011;59064;45.294;11.816;2022-12-11T00:58:10;28.20;;;15.30;;
68938;SDS011;59064;45.294;11.816;2022-12-11T01:00:36;29.70;;;15.90;;
68938;SDS011;59064;45.294;11.816;2022-12-11T01:03:03;25.70;;;14.00;;
68938;SDS011;59064;45.294;11.816;2022-12-11T01:05:31;28.20;;;16.10;;
68938;SDS011;59064;45.294;11.816;2022-12-11T01:07:57;28.20;;;15.60;;
68938;SDS011;59064;45.294;11.816;2022-12-11T01:10:23;26.30;;;16.80;;
68938;SDS011;59064;45.294;11.816;2022-12-11T01:12:53;23.20;;;14.40;;
68938;SDS011;59064;45.294;11.816;2022-12-11T01:15:21;23.90;;;13.20;;
68938;SDS011;59064;45.294;11.816;2022-12-11T01:17:48;25.00;;;14.60;;
68938;SDS011;59064;45.294;11.816;2022-12-11T01:20:14;21.80;;;14.40;;
68938;SDS011;59064;45.294;11.816;2022-12-11T01:22:40;24.30;;;13.20;;
68938;SDS011;59064;45.294;11.816;2022-12-11T01:25:06;20.30;;;12.20;;
68938;SDS011;59064;45.294;11.816;2022-12-11T01:27:33;20.30;;;12.70;;
68938;SDS011;59064;45.294;11.816;2022-12-11T01:30:00;16.70;;;10.60;;
68938;SDS011;59064;45.294;11.816;2022-12-11T01:32:26;17.80;;;11.50;;
68938;SDS011;59064;45.294;11.816;2022-12-11T01:34:52;15.30;;;9.00;;
68938;SDS011;59064;45.294;11.816;2022-12-11T01:37:18;18.00;;;9.90;;
68938;SDS011;59064;45.294;11.816;2022-12-11T01:39:44;14.60;;;8.30;;
68938;SDS011;59064;45.294;11.816;2022-12-11T01:42:13;18.70;;;10.60;;
68938;SDS011;59064;45.294;11.816;2022-12-11T01:47:07;17.40;;;10.80;;
68938;SDS011;59064;45.294;11.816;2022-12-11T01:49:33;17.90;;;10.40;;
68938;SDS011;59064;45.294;11.816;2022-12-11T01:52:04;18.50;;;11.70;;
68938;SDS011;59064;45.294;11.816;2022-12-11T01:54:34;16.90;;;9.80;;
68938;SDS011;59064;45.294;11.816;2022-12-11T01:57:00;17.20;;;9.50;;
68938;SDS011;59064;45.294;11.816;2022-12-11T01:59:29;15.00;;;9.70;;
68938;SDS011;59064;45.294;11.816;2022-12-11T02:02:13;17.30;;;9.90;;
68938;SDS011;59064;45.294;11.816;2022-12-11T02:04:42;15.50;;;9.90;;
68938;SDS011;59064;45.294;11.816;2022-12-11T02:07:10;14.90;;;10.70;;
68938;SDS011;59064;45.294;11.816;2022-12-11T02:09:36;13.60;;;8.80;;
68938;SDS011;59064;45.294;11.816;2022-12-11T02:12:11;16.00;;;9.50;;
68938;SDS011;59064;45.294;11.816;2022-12-11T02:18:12;14.80;;;9.00;;
68938;SDS011;59064;45.294;11.816;2022-12-11T02:20:44;16.80;;;8.90;;
68938;SDS011;59064;45.294;11.816;2022-12-11T02:23:26;16.70;;;10.10;;
68938;SDS011;59064;45.294;11.816;2022-12-11T02:29:00;12.00;;;7.90;;
68938;SDS011;59064;45.294;11.816;2022-12-11T02:31:33;14.90;;;8.50;;
68938;SDS011;59064;45.294;11.816;2022-12-11T02:36:34;14.50;;;8.40;;
68938;SDS011;59064;45.294;11.816;2022-12-11T02:39:08;12.80;;;7.60;;
68938;SDS011;59064;45.294;11.816;2022-12-11T02:41:37;13.20;;;8.90;;
68938;SDS011;59064;45.294;11.816;2022-12-11T02:44:06;13.40;;;8.60;;
68938;SDS011;59064;45.294;11.816;2022-12-11T02:46:36;12.60;;;8.70;;
68938;SDS011;59064;45.294;11.816;2022-12-11T02:49:03;14.00;;;8.30;;
68938;SDS011;59064;45.294;11.816;2022-12-11T02:51:33;12.00;;;7.70;;
68938;SDS011;59064;45.294;11.816;2022-12-11T02:54:02;13.00;;;8.00;;
68938;SDS011;59064;45.294;11.816;2022-12-11T02:59:25;13.90;;;8.50;;
68938;SDS011;59064;45.294;11.816;2022-12-11T03:01:55;13.70;;;8.40;;
68938;SDS011;59064;45.294;11.816;2022-12-11T03:04:20;12.80;;;7.70;;
68938;SDS011;59064;45.294;11.816;2022-12-11T03:06:50;13.70;;;7.80;;
68938;SDS011;59064;45.294;11.816;2022-12-11T03:09:19;10.30;;;6.10;;
68938;SDS011;59064;45.294;11.816;2022-12-11T03:11:45;12.90;;;7.40;;
68938;SDS011;59064;45.294;11.816;2022-12-11T03:14:10;11.10;;;6.90;;
68938;SDS011;59064;45.294;11.816;2022-12-11T03:16:38;12.50;;;7.00;;
68938;SDS011;59064;45.294;11.816;2022-12-11T03:19:17;12.50;;;8.00;;
68938;SDS011;59064;45.294;11.816;2022-12-11T03:21:59;11.20;;;6.70;;
68938;SDS011;59064;45.294;11.816;2022-12-11T03:24:37;12.00;;;6.70;;
68938;SDS011;59064;45.294;11.816;2022-12-11T03:30:28;10.30;;;6.40;;
68938;SDS011;59064;45.294;11.816;2022-12-11T03:33:06;13.90;;;7.50;;
68938;SDS011;59064;45.294;11.816;2022-12-11T03:35:39;9.50;;;5.80;;
68938;SDS011;59064;45.294;11.816;2022-12-11T03:38:12;13.40;;;7.30;;
68938;SDS011;59064;45.294;11.816;2022-12-11T03:40:42;10.30;;;5.90;;
68938;SDS011;59064;45.294;11.816;2022-12-11T03:43:12;14.80;;;6.80;;
68938;SDS011;59064;45.294;11.816;2022-12-11T03:45:38;9.10;;;5.40;;
68938;SDS011;59064;45.294;11.816;2022-12-11T03:48:06;10.10;;;5.40;;
68938;SDS011;59064;45.294;11.816;2022-12-11T03:50:33;7.40;;;4.10;;
68938;SDS011;59064;45.294;11.816;2022-12-11T03:53:00;9.60;;;6.50;;
68938;SDS011;59064;45.294;11.816;2022-12-11T03:55:27;10.10;;;5.60;;
68938;SDS011;59064;45.294;11.816;2022-12-11T03:57:54;12.60;;;5.80;;
68938;SDS011;59064;45.294;11.816;2022-12-11T04:00:20;10.60;;;6.20;;
68938;SDS011;59064;45.294;11.816;2022-12-11T04:02:47;11.20;;;6.00;;
68938;SDS011;59064;45.294;11.816;2022-12-11T04:05:33;11.40;;;5.20;;
68938;SDS011;59064;45.294;11.816;2022-12-11T04:07:58;10.10;;;5.70;;
68938;SDS011;59064;45.294;11.816;2022-12-11T04:10:24;8.90;;;5.70;;
68938;SDS011;59064;45.294;11.816;2022-12-11T04:12:49;10.00;;;6.60;;
68938;SDS011;59064;45.294;11.816;2022-12-11T04:15:15;12.90;;;7.90;;
68938;SDS011;59064;45.294;11.816;2022-12-11T04:17:40;11.40;;;6.90;;
68938;SDS011;59064;45.294;11.816;2022-12-11T04:20:24;10.20;;;6.80;;
68938;SDS011;59064;45.294;11.816;2022-12-11T04:23:15;9.70;;;6.20;;
68938;SDS011;59064;45.294;11.816;2022-12-11T04:28:34;8.70;;;5.70;;
68938;SDS011;59064;45.294;11.816;2022-12-11T04:31:00;10.30;;;6.50;;
68938;SDS011;59064;45.294;11.816;2022-12-11T04:33:26;8.60;;;5.10;;
68938;SDS011;59064;45.294;11.816;2022-12-11T04:35:52;7.40;;;4.40;;
68938;SDS011;59064;45.294;11.816;2022-12-11T04:38:18;7.90;;;5.20;;
68938;SDS011;59064;45.294;11.816;2022-12-11T04:40:43;7.60;;;4.50;;
68938;SDS011;59064;45.294;11.816;2022-12-11T04:43:09;7.40;;;4.40;;
68938;SDS011;59064;45.294;11.816;2022-12-11T04:45:34;6.50;;;4.70;;
68938;SDS011;59064;45.294;11.816;2022-12-11T04:48:00;6.20;;;4.20;;
68938;SDS011;59064;45.294;11.816;2022-12-11T04:50:25;6.30;;;3.90;;
68938;SDS011;59064;45.294;11.816;2022-12-11T04:52:53;5.40;;;3.50;;
68938;SDS011;59064;45.294;11.816;2022-12-11T04:55:19;4.30;;;2.50;;
68938;SDS011;59064;45.294;11.816;2022-12-11T04:57:46;4.40;;;2.50;;
68938;SDS011;59064;45.294;11.816;2022-12-11T05:00:11;4.10;;;2.00;;
68938;SDS011;59064;45.294;11.816;2022-12-11T05:02:38;4.80;;;2.90;;
68938;SDS011;59064;45.294;11.816;2022-12-11T05:05:05;5.00;;;2.70;;
68938;SDS011;59064;45.294;11.816;2022-12-11T05:07:36;6.00;;;2.90;;
68938;SDS011;59064;45.294;11.816;2022-12-11T05:10:03;5.50;;;3.00;;
68938;SDS011;59064;45.294;11.816;2022-12-11T05:12:30;5.00;;;3.10;;
68938;SDS011;59064;45.294;11.816;2022-12-11T05:14:56;5.70;;;3.30;;
68938;SDS011;59064;45.294;11.816;2022-12-11T05:17:22;5.50;;;3.20;;
68938;SDS011;59064;45.294;11.816;2022-12-11T05:19:48;6.00;;;3.50;;
68938;SDS011;59064;45.294;11.816;2022-12-11T05:22:14;6.70;;;4.20;;
68938;SDS011;59064;45.294;11.816;2022-12-11T05:24:42;6.50;;;3.90;;
68938;SDS011;59064;45.294;11.816;2022-12-11T05:27:09;6.00;;;4.10;;
68938;SDS011;59064;45.294;11.816;2022-12-11T05:29:35;6.50;;;4.10;;
68938;SDS011;59064;45.294;11.816;2022-12-11T05:32:01;7.30;;;4.80;;
68938;SDS011;59064;45.294;11.816;2022-12-11T05:34:27;7.90;;;4.10;;
68938;SDS011;59064;45.294;11.816;2022-12-11T05:36:53;5.80;;;3.70;;
68938;SDS011;59064;45.294;11.816;2022-12-11T05:39:19;5.30;;;3.40;;
68938;SDS011;59064;45.294;11.816;2022-12-11T05:41:44;5.90;;;3.60;;
68938;SDS011;59064;45.294;11.816;2022-12-11T05:44:11;5.00;;;2.80;;
68938;SDS011;59064;45.294;11.816;2022-12-11T05:46:37;4.70;;;2.80;;
68938;SDS011;59064;45.294;11.816;2022-12-11T05:49:03;4.30;;;2.10;;
68938;SDS011;59064;45.294;11.816;2022-12-11T05:51:29;3.20;;;1.90;;
68938;SDS011;59064;45.294;11.816;2022-12-11T05:53:57;3.30;;;1.90;;
68938;SDS011;59064;45.294;11.816;2022-12-11T05:56:24;3.50;;;1.80;;
68938;SDS011;59064;45.294;11.816;2022-12-11T05:58:54;2.70;;;1.50;;
68938;SDS011;59064;45.294;11.816;2022-12-11T06:01:28;3.30;;;1.90;;
68938;SDS011;59064;45.294;11.816;2022-12-11T06:04:02;2.70;;;1.30;;
68938;SDS011;59064;45.294;11.816;2022-12-11T06:06:29;4.10;;;2.30;;
68938;SDS011;59064;45.294;11.816;2022-12-11T06:08:56;4.70;;;1.30;;
68938;SDS011;59064;45.294;11.816;2022-12-11T06:11:24;4.50;;;1.60;;
68938;SDS011;59064;45.294;11.816;2022-12-11T06:13:51;3.40;;;1.40;;
68938;SDS011;59064;45.294;11.816;2022-12-11T06:16:18;2.30;;;1.20;;
68938;SDS011;59064;45.294;11.816;2022-12-11T06:18:44;2.70;;;1.40;;
68938;SDS011;59064;45.294;11.816;2022-12-11T06:21:21;4.30;;;1.30;;
68938;SDS011;59064;45.294;11.816;2022-12-11T06:23:49;2.80;;;1.40;;
68938;SDS011;59064;45.294;11.816;2022-12-11T06:26:16;2.60;;;1.30;;
68938;SDS011;59064;45.294;11.816;2022-12-11T06:28:43;2.80;;;1.50;;
68938;SDS011;59064;45.294;11.816;2022-12-11T06:31:08;3.80;;;1.60;;
68938;SDS011;59064;45.294;11.816;2022-12-11T06:33:34;2.90;;;1.10;;
68938;SDS011;59064;45.294;11.816;2022-12-11T06:36:00;2.50;;;1.20;;
68938;SDS011;59064;45.294;11.816;2022-12-11T06:38:28;2.30;;;1.10;;
68938;SDS011;59064;45.294;11.816;2022-12-11T06:40:57;2.80;;;1.40;;
68938;SDS011;59064;45.294;11.816;2022-12-11T06:43:24;2.60;;;1.20;;
68938;SDS011;59064;45.294;11.816;2022-12-11T06:45:49;3.40;;;1.40;;
68938;SDS011;59064;45.294;11.816;2022-12-11T06:48:15;2.60;;;1.20;;
68938;SDS011;59064;45.294;11.816;2022-12-11T06:50:41;3.60;;;1.40;;
68938;SDS011;59064;45.294;11.816;2022-12-11T06:53:06;2.00;;;1.00;;
68938;SDS011;59064;45.294;11.816;2022-12-11T06:55:34;1.90;;;0.90;;
68938;SDS011;59064;45.294;11.816;2022-12-11T06:58:00;2.70;;;1.10;;
68938;SDS011;59064;45.294;11.816;2022-12-11T07:00:25;3.10;;;1.20;;
68938;SDS011;59064;45.294;11.816;2022-12-11T07:02:51;3.20;;;1.40;;
68938;SDS011;59064;45.294;11.816;2022-12-11T07:05:17;2.80;;;1.20;;
68938;SDS011;59064;45.294;11.816;2022-12-11T07:07:42;3.00;;;1.30;;
68938;SDS011;59064;45.294;11.816;2022-12-11T07:10:08;2.60;;;1.20;;
68938;SDS011;59064;45.294;11.816;2022-12-11T07:12:34;2.60;;;1.40;;
68938;SDS011;59064;45.294;11.816;2022-12-11T07:15:00;2.70;;;1.50;;
68938;SDS011;59064;45.294;11.816;2022-12-11T07:17:27;2.80;;;1.20;;
68938;SDS011;59064;45.294;11.816;2022-12-11T07:19:53;2.70;;;1.20;;
68938;SDS011;59064;45.294;11.816;2022-12-11T07:22:19;3.50;;;1.70;;
68938;SDS011;59064;45.294;11.816;2022-12-11T07:24:44;3.00;;;1.50;;
68938;SDS011;59064;45.294;11.816;2022-12-11T07:27:10;2.50;;;1.40;;
68938;SDS011;59064;45.294;11.816;2022-12-11T07:29:35;2.30;;;1.00;;
68938;SDS011;59064;45.294;11.816;2022-12-11T07:32:01;4.00;;;1.30;;
68938;SDS011;59064;45.294;11.816;2022-12-11T07:34:26;2.50;;;1.20;;
68938;SDS011;59064;45.294;11.816;2022-12-11T07:36:52;2.00;;;1.00;;
68938;SDS011;59064;45.294;11.816;2022-12-11T07:39:18;3.00;;;1.50;;
68938;SDS011;59064;45.294;11.816;2022-12-11T07:41:43;2.60;;;1.30;;
68938;SDS011;59064;45.294;11.816;2022-12-11T07:44:11;2.90;;;1.30;;
68938;SDS011;59064;45.294;11.816;2022-12-11T07:46:37;1.80;;;0.90;;
68938;SDS011;59064;45.294;11.816;2022-12-11T07:49:04;3.40;;;1.60;;
68938;SDS011;59064;45.294;11.816;2022-12-11T07:51:31;2.90;;;1.60;;
68938;SDS011;59064;45.294;11.816;2022-12-11T07:54:00;2.90;;;1.50;;
68938;SDS011;59064;45.294;11.816;2022-12-11T07:56:31;4.30;;;1.50;;
68938;SDS011;59064;45.294;11.816;2022-12-11T07:59:01;3.90;;;1.70;;
68938;SDS011;59064;45.294;11.816;2022-12-11T08:01:29;4.20;;;2.00;;
68938;SDS011;59064;45.294;11.816;2022-12-11T08:03:56;2.80;;;1.50;;
68938;SDS011;59064;45.294;11.816;2022-12-11T08:06:26;2.80;;;1.60;;
68938;SDS011;59064;45.294;11.816;2022-12-11T08:08:54;3.50;;;1.40;;
68938;SDS011;59064;45.294;11.816;2022-12-11T08:11:22;2.60;;;1.40;;
68938;SDS011;59064;45.294;11.816;2022-12-11T08:13:48;2.80;;;1.30;;
68938;SDS011;59064;45.294;11.816;2022-12-11T08:16:14;3.30;;;1.50;;
68938;SDS011;59064;45.294;11.816;2022-12-11T08:18:41;3.00;;;1.40;;
68938;SDS011;59064;45.294;11.816;2022-12-11T08:21:09;3.10;;;1.30;;
68938;SDS011;59064;45.294;11.816;2022-12-11T08:23:36;3.80;;;1.50;;
68938;SDS011;59064;45.294;11.816;2022-12-11T08:26:03;2.40;;;1.40;;
68938;SDS011;59064;45.294;11.816;2022-12-11T08:28:31;2.60;;;1.20;;
68938;SDS011;59064;45.294;11.816;2022-12-11T08:30:57;3.50;;;1.60;;
68938;SDS011;59064;45.294;11.816;2022-12-11T08:33:23;2.60;;;1.10;;
68938;SDS011;59064;45.294;11.816;2022-12-11T08:35:49;3.10;;;1.50;;
68938;SDS011;59064;45.294;11.816;2022-12-11T08:38:16;2.30;;;1.10;;
68938;SDS011;59064;45.294;11.816;2022-12-11T08:40:43;2.90;;;1.30;;
68938;SDS011;59064;45.294;11.816;2022-12-11T08:43:08;2.80;;;1.20;;
68938;SDS011;59064;45.294;11.816;2022-12-11T08:45:34;2.10;;;1.00;;
68938;SDS011;59064;45.294;11.816;2022-12-11T08:47:59;3.30;;;1.60;;
68938;SDS011;59064;45.294;11.816;2022-12-11T08:50:25;3.20;;;1.60;;
68938;SDS011;59064;45.294;11.816;2022-12-11T08:52:51;3.30;;;1.50;;
68938;SDS011;59064;45.294;11.816;2022-12-11T08:55:18;3.50;;;1.70;;
68938;SDS011;59064;45.294;11.816;2022-12-11T08:57:44;8.70;;;2.70;;
68938;SDS011;59064;45.294;11.816;2022-12-11T09:00:10;2.80;;;1.30;;
68938;SDS011;59064;45.294;11.816;2022-12-11T09:02:39;2.70;;;1.20;;
68938;SDS011;59064;45.294;11.816;2022-12-11T09:05:04;5.50;;;1.90;;
68938;SDS011;59064;45.294;11.816;2022-12-11T09:07:35;2.80;;;1.40;;
68938;SDS011;59064;45.294;11.816;2022-12-11T09:10:03;3.00;;;1.60;;
68938;SDS011;59064;45.294;11.816;2022-12-11T09:12:34;5.30;;;2.30;;
68938;SDS011;59064;45.294;11.816;2022-12-11T09:15:00;4.00;;;1.60;;
68938;SDS011;59064;45.294;11.816;2022-12-11T09:17:26;3.60;;;1.70;;
68938;SDS011;59064;45.294;11.816;2022-12-11T09:19:52;3.10;;;1.60;;
68938;SDS011;59064;45.294;11.816;2022-12-11T09:22:17;5.80;;;2.10;;
68938;SDS011;59064;45.294;11.816;2022-12-11T09:24:43;3.70;;;1.60;;
68938;SDS011;59064;45.294;11.816;2022-12-11T09:27:10;4.00;;;1.60;;
68938;SDS011;59064;45.294;11.816;2022-12-11T09:29:35;2.60;;;1.40;;
68938;SDS011;59064;45.294;11.816;2022-12-11T09:32:02;2.60;;;1.40;;
68938;SDS011;59064;45.294;11.816;2022-12-11T09:34:28;4.90;;;2.40;;
68938;SDS011;59064;45.294;11.816;2022-12-11T09:36:54;3.50;;;1.30;;
68938;SDS011;59064;45.294;11.816;2022-12-11T09:39:19;3.20;;;1.70;;
68938;SDS011;59064;45.294;11.816;2022-12-11T09:44:38;3.20;;;1.70;;
68938;SDS011;59064;45.294;11.816;2022-12-11T09:52:47;3.90;;;1.80;;
68938;SDS011;59064;45.294;11.816;2022-12-11T09:55:45;3.10;;;1.50;;
68938;SDS011;59064;45.294;11.816;2022-12-11T10:00:48;3.30;;;1.60;;
68938;SDS011;59064;45.294;11.816;2022-12-11T10:03:30;5.80;;;2.80;;
68938;SDS011;59064;45.294;11.816;2022-12-11T10:14:23;4.00;;;2.40;;
68938;SDS011;59064;45.294;11.816;2022-12-11T10:16:51;5.20;;;2.60;;
68938;SDS011;59064;45.294;11.816;2022-12-11T10:19:24;5.00;;;2.70;;
68938;SDS011;59064;45.294;11.816;2022-12-11T10:21:53;5.30;;;2.40;;
68938;SDS011;59064;45.294;11.816;2022-12-11T10:24:41;4.00;;;2.70;;
68938;SDS011;59064;45.294;11.816;2022-12-11T10:27:21;3.60;;;1.80;;
68938;SDS011;59064;45.294;11.816;2022-12-11T10:29:53;4.70;;;2.40;;
68938;SDS011;59064;45.294;11.816;2022-12-11T10:41:14;6.00;;;2.70;;
68938;SDS011;59064;45.294;11.816;2022-12-11T10:43:46;4.20;;;2.30;;
68938;SDS011;59064;45.294;11.816;2022-12-11T10:48:46;4.20;;;2.70;;
68938;SDS011;59064;45.294;11.816;2022-12-11T10:51:32;4.30;;;2.60;;
68938;SDS011;59064;45.294;11.816;2022-12-11T10:56:43;4.80;;;2.40;;
68938;SDS011;59064;45.294;11.816;2022-12-11T10:59:16;3.30;;;1.40;;
68938;SDS011;59064;45.294;11.816;2022-12-11T11:01:48;3.10;;;1.50;;
68938;SDS011;59064;45.294;11.816;2022-12-11T11:04:15;2.50;;;1.40;;
68938;SDS011;59064;45.294;11.816;2022-12-11T11:09:42;3.70;;;2.20;;
68938;SDS011;59064;45.294;11.816;2022-12-11T11:12:26;3.90;;;2.30;;
68938;SDS011;59064;45.294;11.816;2022-12-11T11:14:59;3.90;;;2.30;;
68938;SDS011;59064;45.294;11.816;2022-12-11T11:17:30;4.30;;;2.20;;
68938;SDS011;59064;45.294;11.816;2022-12-11T11:20:03;5.70;;;2.10;;
68938;SDS011;59064;45.294;11.816;2022-12-11T11:22:39;3.70;;;1.80;;
68938;SDS011;59064;45.294;11.816;2022-12-11T11:25:20;4.80;;;2.50;;
68938;SDS011;59064;45.294;11.816;2022-12-11T11:27:49;4.30;;;2.60;;
68938;SDS011;59064;45.294;11.816;2022-12-11T11:30:28;3.20;;;1.80;;
68938;SDS011;59064;45.294;11.816;2022-12-11T11:32:56;4.20;;;2.30;;
68938;SDS011;59064;45.294;11.816;2022-12-11T11:35:26;4.10;;;2.30;;
68938;SDS011;59064;45.294;11.816;2022-12-11T11:41:22;3.70;;;2.00;;
68938;SDS011;59064;45.294;11.816;2022-12-11T11:43:59;3.70;;;2.00;;
68938;SDS011;59064;45.294;11.816;2022-12-11T11:49:03;3.80;;;2.20;;
68938;SDS011;59064;45.294;11.816;2022-12-11T11:52:00;3.70;;;1.90;;
68938;SDS011;59064;45.294;11.816;2022-12-11T11:54:36;5.90;;;3.20;;
68938;SDS011;59064;45.294;11.816;2022-12-11T11:57:14;4.10;;;2.10;;
68938;SDS011;59064;45.294;11.816;2022-12-11T12:00:28;2.00;;;1.20;;
68938;SDS011;59064;45.294;11.816;2022-12-11T12:02:57;3.60;;;1.30;;
68938;SDS011;59064;45.294;11.816;2022-12-11T12:05:46;2.60;;;1.30;;
68938;SDS011;59064;45.294;11.816;2022-12-11T12:11:06;3.00;;;1.70;;
68938;SDS011;59064;45.294;11.816;2022-12-11T12:14:06;4.50;;;2.40;;
68938;SDS011;59064;45.294;11.816;2022-12-11T12:25:27;3.90;;;2.10;;
68938;SDS011;59064;45.294;11.816;2022-12-11T12:28:04;3.60;;;1.60;;
68938;SDS011;59064;45.294;11.816;2022-12-11T12:30:44;4.50;;;2.40;;
68938;SDS011;59064;45.294;11.816;2022-12-11T12:35:56;4.20;;;2.10;;
68938;SDS011;59064;45.294;11.816;2022-12-11T12:38:40;3.90;;;1.90;;
68938;SDS011;59064;45.294;11.816;2022-12-11T12:41:23;6.20;;;3.40;;
68938;SDS011;59064;45.294;11.816;2022-12-11T12:44:22;4.50;;;2.20;;
68938;SDS011;59064;45.294;11.816;2022-12-11T12:46:54;4.60;;;2.40;;
68938;SDS011;59064;45.294;11.816;2022-12-11T12:49:33;3.50;;;1.90;;
68938;SDS011;59064;45.294;11.816;2022-12-11T12:52:02;5.30;;;2.90;;
68938;SDS011;59064;45.294;11.816;2022-12-11T12:54:30;5.90;;;2.80;;
68938;SDS011;59064;45.294;11.816;2022-12-11T12:56:57;5.10;;;2.40;;
68938;SDS011;59064;45.294;11.816;2022-12-11T12:59:26;4.60;;;3.00;;
68938;SDS011;59064;45.294;11.816;2022-12-11T13:01:53;4.90;;;2.60;;
68938;SDS011;59064;45.294;11.816;2022-12-11T13:04:26;5.90;;;3.20;;
68938;SDS011;59064;45.294;11.816;2022-12-11T13:06:52;4.50;;;2.80;;
68938;SDS011;59064;45.294;11.816;2022-12-11T13:09:20;3.50;;;1.70;;
68938;SDS011;59064;45.294;11.816;2022-12-11T13:11:48;5.20;;;2.50;;
68938;SDS011;59064;45.294;11.816;2022-12-11T13:16:43;5.40;;;3.20;;
68938;SDS011;59064;45.294;11.816;2022-12-11T13:21:58;5.20;;;3.00;;
68938;SDS011;59064;45.294;11.816;2022-12-11T13:24:26;3.90;;;2.10;;
68938;SDS011;59064;45.294;11.816;2022-12-11T13:26:54;4.30;;;2.60;;
68938;SDS011;59064;45.294;11.816;2022-12-11T13:30:03;3.60;;;1.90;;
68938;SDS011;59064;45.294;11.816;2022-12-11T13:34:43;5.40;;;2.70;;
68938;SDS011;59064;45.294;11.816;2022-12-11T13:37:32;3.70;;;1.70;;
68938;SDS011;59064;45.294;11.816;2022-12-11T13:40:36;3.90;;;2.10;;
68938;SDS011;59064;45.294;11.816;2022-12-11T13:42:55;5.10;;;2.70;;
68938;SDS011;59064;45.294;11.816;2022-12-11T13:45:28;6.60;;;2.70;;
68938;SDS011;59064;45.294;11.816;2022-12-11T13:48:01;6.30;;;2.40;;
68938;SDS011;59064;45.294;11.816;2022-12-11T13:50:31;3.40;;;1.80;;
68938;SDS011;59064;45.294;11.816;2022-12-11T13:53:00;4.20;;;2.30;;
68938;SDS011;59064;45.294;11.816;2022-12-11T13:55:27;4.80;;;3.10;;
68938;SDS011;59064;45.294;11.816;2022-12-11T13:57:55;5.10;;;2.30;;
68938;SDS011;59064;45.294;11.816;2022-12-11T14:00:23;5.20;;;3.20;;
68938;SDS011;59064;45.294;11.816;2022-12-11T14:02:57;4.30;;;2.70;;
68938;SDS011;59064;45.294;11.816;2022-12-11T14:05:25;3.60;;;2.10;;
68938;SDS011;59064;45.294;11.816;2022-12-11T14:07:54;5.70;;;2.50;;
68938;SDS011;59064;45.294;11.816;2022-12-11T14:10:26;6.10;;;2.10;;
68938;SDS011;59064;45.294;11.816;2022-12-11T14:15:19;6.60;;;2.80;;
68938;SDS011;59064;45.294;11.816;2022-12-11T14:17:46;5.70;;;3.20;;
68938;SDS011;59064;45.294;11.816;2022-12-11T14:20:22;4.00;;;2.70;;
68938;SDS011;59064;45.294;11.816;2022-12-11T14:22:50;5.20;;;3.00;;
68938;SDS011;59064;45.294;11.816;2022-12-11T14:25:26;7.10;;;2.90;;
68938;SDS011;59064;45.294;11.816;2022-12-11T14:27:53;7.10;;;3.00;;
68938;SDS011;59064;45.294;11.816;2022-12-11T14:30:25;7.10;;;3.00;;
68938;SDS011;59064;45.294;11.816;2022-12-11T14:32:58;4.20;;;2.20;;
68938;SDS011;59064;45.294;11.816;2022-12-11T14:35:31;4.50;;;2.30;;
68938;SDS011;59064;45.294;11.816;2022-12-11T14:38:01;8.70;;;4.60;;
68938;SDS011;59064;45.294;11.816;2022-12-11T14:40:37;5.80;;;2.90;;
68938;SDS011;59064;45.294;11.816;2022-12-11T14:43:09;6.20;;;3.10;;
68938;SDS011;59064;45.294;11.816;2022-12-11T14:45:40;5.00;;;2.60;;
68938;SDS011;59064;45.294;11.816;2022-12-11T14:48:15;4.70;;;2.10;;
68938;SDS011;59064;45.294;11.816;2022-12-11T14:50:53;4.00;;;2.30;;
68938;SDS011;59064;45.294;11.816;2022-12-11T14:55:50;6.40;;;3.30;;
68938;SDS011;59064;45.294;11.816;2022-12-11T14:58:21;5.90;;;2.50;;
68938;SDS011;59064;45.294;11.816;2022-12-11T15:00:59;8.60;;;3.40;;
68938;SDS011;59064;45.294;11.816;2022-12-11T15:03:31;6.00;;;2.60;;
68938;SDS011;59064;45.294;11.816;2022-12-11T15:05:59;5.30;;;2.20;;
68938;SDS011;59064;45.294;11.816;2022-12-11T15:08:30;6.40;;;3.30;;
68938;SDS011;59064;45.294;11.816;2022-12-11T15:11:00;8.90;;;4.10;;
68938;SDS011;59064;45.294;11.816;2022-12-11T15:13:26;10.40;;;4.80;;
68938;SDS011;59064;45.294;11.816;2022-12-11T15:15:52;9.10;;;3.90;;
68938;SDS011;59064;45.294;11.816;2022-12-11T15:18:21;7.40;;;3.90;;
68938;SDS011;59064;45.294;11.816;2022-12-11T15:20:57;14.70;;;6.50;;
68938;SDS011;59064;45.294;11.816;2022-12-11T15:23:38;27.40;;;10.80;;
68938;SDS011;59064;45.294;11.816;2022-12-11T15:26:19;11.80;;;4.90;;
68938;SDS011;59064;45.294;11.816;2022-12-11T15:29:00;14.80;;;6.40;;
68938;SDS011;59064;45.294;11.816;2022-12-11T15:31:28;12.70;;;6.00;;
68938;SDS011;59064;45.294;11.816;2022-12-11T15:33:57;8.30;;;4.40;;
68938;SDS011;59064;45.294;11.816;2022-12-11T15:38:55;6.40;;;3.50;;
68938;SDS011;59064;45.294;11.816;2022-12-11T15:41:24;7.50;;;4.60;;
68938;SDS011;59064;45.294;11.816;2022-12-11T15:43:50;6.70;;;4.10;;
68938;SDS011;59064;45.294;11.816;2022-12-11T15:46:18;9.20;;;6.10;;
68938;SDS011;59064;45.294;11.816;2022-12-11T15:48:44;7.80;;;4.60;;
68938;SDS011;59064;45.294;11.816;2022-12-11T15:51:09;6.10;;;4.40;;
68938;SDS011;59064;45.294;11.816;2022-12-11T15:53:35;7.80;;;4.40;;
68938;SDS011;59064;45.294;11.816;2022-12-11T15:56:01;7.50;;;3.70;;
68938;SDS011;59064;45.294;11.816;2022-12-11T15:58:27;7.30;;;4.50;;
68938;SDS011;59064;45.294;11.816;2022-12-11T16:00:54;11.80;;;5.90;;
68938;SDS011;59064;45.294;11.816;2022-12-11T16:03:20;8.50;;;4.70;;
68938;SDS011;59064;45.294;11.816;2022-12-11T16:05:48;13.20;;;6.20;;
68938;SDS011;59064;45.294;11.816;2022-12-11T16:08:17;6.90;;;3.70;;
68938;SDS011;59064;45.294;11.816;2022-12-11T16:10:45;9.30;;;4.80;;
68938;SDS011;59064;45.294;11.816;2022-12-11T16:13:11;9.00;;;3.80;;
68938;SDS011;59064;45.294;11.816;2022-12-11T16:15:38;7.50;;;4.10;;